sensor_id;sensor_type;location;lat;lon;timestamp;temperature;humidity
59282;DHT22;45054;52.062;10.010;2024-03-29T00:00:49;7.20;99.90
59282;DHT22;45054;52.062;10.010;2024-03-29T00:03:17;7.20;99.90
59282;DHT22;45054;52.062;10.010;2024-03-29T00:05:43;7.20;99.90
59282;DHT22;45054;52.062;10.010;2024-03-29T00:08:08;7.20;99.90
59282;DHT22;45054;52.062;10.010;2024-03-29T00:10:34;7.20;99.90
59282;DHT22;45054;52.062;10.010;2024-03-29T00:12:59;7.20;99.90
59282;DHT22;45054;52.062;10.010;2024-03-29T00:15:26;7.20;99.90
59282;DHT22;45054;52.062;10.010;2024-03-29T00:17:52;7.10;99.90
59282;DHT22;45054;52.062;10.010;2024-03-29T00:20:17;7.10;99.90
59282;DHT22;45054;52.062;10.010;2024-03-29T00:22:43;7.20;99.90
59282;DHT22;45054;52.062;10.010;2024-03-29T00:25:09;7.10;99.90
59282;DHT22;45054;52.062;10.010;2024-03-29T00:27:34;7.10;99.90
59282;DHT22;45054;52.062;10.010;2024-03-29T00:30:00;7.10;99.90
59282;DHT22;45054;52.062;10.010;2024-03-29T00:32:27;7.10;99.90
59282;DHT22;45054;52.062;10.010;2024-03-29T00:34:53;7.20;99.90
59282;DHT22;45054;52.062;10.010;2024-03-29T00:37:19;7.20;99.90
59282;DHT22;45054;52.062;10.010;2024-03-29T00:39:44;7.10;99.90
59282;DHT22;45054;52.062;10.010;2024-03-29T00:42:10;7.10;99.90
59282;DHT22;45054;52.062;10.010;2024-03-29T00:44:36;7.10;99.90
59282;DHT22;45054;52.062;10.010;2024-03-29T00:47:01;7.10;99.90
59282;DHT22;45054;52.062;10.010;2024-03-29T00:49:28;7.20;99.90
59282;DHT22;45054;52.062;10.010;2024-03-29T00:51:54;7.20;99.90
59282;DHT22;45054;52.062;10.010;2024-03-29T00:54:19;7.20;99.90
59282;DHT22;45054;52.062;10.010;2024-03-29T00:56:45;7.20;99.90
59282;DHT22;45054;52.062;10.010;2024-03-29T00:59:10;7.20;99.90
59282;DHT22;45054;52.062;10.010;2024-03-29T01:01:36;7.20;99.90
59282;DHT22;45054;52.062;10.010;2024-03-29T01:04:01;7.10;99.90
59282;DHT22;45054;52.062;10.010;2024-03-29T01:06:28;7.10;99.90
59282;DHT22;45054;52.062;10.010;2024-03-29T01:08:54;7.10;99.90
59282;DHT22;45054;52.062;10.010;2024-03-29T01:11:19;7.10;99.90
59282;DHT22;45054;52.062;10.010;2024-03-29T01:13:45;7.10;99.90
59282;DHT22;45054;52.062;10.010;2024-03-29T01:16:11;7.10;99.90
59282;DHT22;45054;52.062;10.010;2024-03-29T01:18:36;7.10;99.90
59282;DHT22;45054;52.062;10.010;2024-03-29T01:21:02;7.10;99.90
59282;DHT22;45054;52.062;10.010;2024-03-29T01:23:29;7.10;99.90
59282;DHT22;45054;52.062;10.010;2024-03-29T01:25:55;7.10;99.90
59282;DHT22;45054;52.062;10.010;2024-03-29T01:28:20;7.10;99.90
59282;DHT22;45054;52.062;10.010;2024-03-29T01:30:52;7.10;99.90
59282;DHT22;45054;52.062;10.010;2024-03-29T01:33:17;7.00;99.90
59282;DHT22;45054;52.062;10.010;2024-03-29T01:35:43;7.10;99.90
59282;DHT22;45054;52.062;10.010;2024-03-29T01:38:08;7.00;99.90
59282;DHT22;45054;52.062;10.010;2024-03-29T01:40:35;7.00;99.90
59282;DHT22;45054;52.062;10.010;2024-03-29T01:43:01;7.00;99.90
59282;DHT22;45054;52.062;10.010;2024-03-29T01:45:27;7.00;99.90
59282;DHT22;45054;52.062;10.010;2024-03-29T01:47:53;7.00;99.90
59282;DHT22;45054;52.062;10.010;2024-03-29T01:50:19;7.00;99.90
59282;DHT22;45054;52.062;10.010;2024-03-29T01:52:44;7.00;99.90
59282;DHT22;45054;52.062;10.010;2024-03-29T01:55:10;6.90;99.90
59282;DHT22;45054;52.062;10.010;2024-03-29T01:57:38;6.90;99.90
59282;DHT22;45054;52.062;10.010;2024-03-29T02:00:05;6.80;99.90
59282;DHT22;45054;52.062;10.010;2024-03-29T02:02:31;6.80;99.90
59282;DHT22;45054;52.062;10.010;2024-03-29T02:04:57;6.80;99.90
59282;DHT22;45054;52.062;10.010;2024-03-29T02:07:23;6.80;99.90
59282;DHT22;45054;52.062;10.010;2024-03-29T02:09:49;6.80;99.90
59282;DHT22;45054;52.062;10.010;2024-03-29T02:12:15;6.90;99.90
59282;DHT22;45054;52.062;10.010;2024-03-29T02:14:42;6.90;99.90
59282;DHT22;45054;52.062;10.010;2024-03-29T02:17:07;6.90;99.90
59282;DHT22;45054;52.062;10.010;2024-03-29T02:19:33;6.90;99.90
59282;DHT22;45054;52.062;10.010;2024-03-29T02:21:59;6.90;99.90
59282;DHT22;45054;52.062;10.010;2024-03-29T02:24:29;6.90;99.90
59282;DHT22;45054;52.062;10.010;2024-03-29T02:26:56;7.00;99.90
59282;DHT22;45054;52.062;10.010;2024-03-29T02:29:22;7.00;99.90
59282;DHT22;45054;52.062;10.010;2024-03-29T02:31:48;7.00;99.90
59282;DHT22;45054;52.062;10.010;2024-03-29T02:34:14;7.10;99.90
59282;DHT22;45054;52.062;10.010;2024-03-29T02:36:39;7.10;99.90
59282;DHT22;45054;52.062;10.010;2024-03-29T02:39:05;7.10;99.90
59282;DHT22;45054;52.062;10.010;2024-03-29T02:41:32;7.10;99.90
59282;DHT22;45054;52.062;10.010;2024-03-29T02:43:57;7.20;99.90
59282;DHT22;45054;52.062;10.010;2024-03-29T02:46:23;7.10;99.90
59282;DHT22;45054;52.062;10.010;2024-03-29T02:48:49;7.20;99.90
59282;DHT22;45054;52.062;10.010;2024-03-29T02:51:15;7.20;99.90
59282;DHT22;45054;52.062;10.010;2024-03-29T02:53:40;7.10;99.90
59282;DHT22;45054;52.062;10.010;2024-03-29T02:56:06;7.10;99.90
59282;DHT22;45054;52.062;10.010;2024-03-29T02:58:33;7.10;99.90
59282;DHT22;45054;52.062;10.010;2024-03-29T03:01:05;7.10;99.90
59282;DHT22;45054;52.062;10.010;2024-03-29T03:03:31;7.10;99.90
59282;DHT22;45054;52.062;10.010;2024-03-29T03:05:56;7.10;99.90
59282;DHT22;45054;52.062;10.010;2024-03-29T03:08:22;7.10;99.90
59282;DHT22;45054;52.062;10.010;2024-03-29T03:10:47;7.10;99.90
59282;DHT22;45054;52.062;10.010;2024-03-29T03:13:13;7.10;99.90
59282;DHT22;45054;52.062;10.010;2024-03-29T03:15:40;7.10;99.90
59282;DHT22;45054;52.062;10.010;2024-03-29T03:18:07;7.10;99.90
59282;DHT22;45054;52.062;10.010;2024-03-29T03:20:33;7.10;99.90
59282;DHT22;45054;52.062;10.010;2024-03-29T03:22:59;7.10;99.90
59282;DHT22;45054;52.062;10.010;2024-03-29T03:25:25;7.10;99.90
59282;DHT22;45054;52.062;10.010;2024-03-29T03:27:50;7.10;99.90
59282;DHT22;45054;52.062;10.010;2024-03-29T03:30:16;7.10;99.90
59282;DHT22;45054;52.062;10.010;2024-03-29T03:32:43;7.10;99.90
59282;DHT22;45054;52.062;10.010;2024-03-29T03:35:09;7.20;99.90
59282;DHT22;45054;52.062;10.010;2024-03-29T03:37:34;7.10;99.90
59282;DHT22;45054;52.062;10.010;2024-03-29T03:40:00;7.20;99.90
59282;DHT22;45054;52.062;10.010;2024-03-29T03:42:25;7.20;99.90
59282;DHT22;45054;52.062;10.010;2024-03-29T03:44:51;7.20;99.90
59282;DHT22;45054;52.062;10.010;2024-03-29T03:47:16;7.20;99.90
59282;DHT22;45054;52.062;10.010;2024-03-29T03:49:43;7.20;99.90
59282;DHT22;45054;52.062;10.010;2024-03-29T03:52:09;7.20;99.90
59282;DHT22;45054;52.062;10.010;2024-03-29T03:54:35;7.10;99.90
59282;DHT22;45054;52.062;10.010;2024-03-29T03:57:00;7.20;99.90
59282;DHT22;45054;52.062;10.010;2024-03-29T03:59:26;7.10;99.90
59282;DHT22;45054;52.062;10.010;2024-03-29T04:01:52;7.20;99.90
59282;DHT22;45054;52.062;10.010;2024-03-29T04:04:17;7.20;99.90
59282;DHT22;45054;52.062;10.010;2024-03-29T04:06:44;7.30;99.90
59282;DHT22;45054;52.062;10.010;2024-03-29T04:09:10;7.30;99.90
59282;DHT22;45054;52.062;10.010;2024-03-29T04:11:35;7.30;99.90
59282;DHT22;45054;52.062;10.010;2024-03-29T04:14:01;7.30;99.90
59282;DHT22;45054;52.062;10.010;2024-03-29T04:16:26;7.30;99.90
59282;DHT22;45054;52.062;10.010;2024-03-29T04:18:52;7.30;99.90
59282;DHT22;45054;52.062;10.010;2024-03-29T04:21:17;7.30;99.90
59282;DHT22;45054;52.062;10.010;2024-03-29T04:23:44;7.30;99.90
59282;DHT22;45054;52.062;10.010;2024-03-29T04:26:10;7.30;99.90
59282;DHT22;45054;52.062;10.010;2024-03-29T04:28:35;7.20;99.90
59282;DHT22;45054;52.062;10.010;2024-03-29T04:31:01;7.30;99.90
59282;DHT22;45054;52.062;10.010;2024-03-29T04:33:27;7.30;99.90
59282;DHT22;45054;52.062;10.010;2024-03-29T04:35:55;7.30;99.90
59282;DHT22;45054;52.062;10.010;2024-03-29T04:38:21;7.30;99.90
59282;DHT22;45054;52.062;10.010;2024-03-29T04:40:48;7.30;99.90
59282;DHT22;45054;52.062;10.010;2024-03-29T04:43:14;7.40;99.90
59282;DHT22;45054;52.062;10.010;2024-03-29T04:45:39;7.40;99.90
59282;DHT22;45054;52.062;10.010;2024-03-29T04:48:05;7.50;99.90
59282;DHT22;45054;52.062;10.010;2024-03-29T04:50:31;7.50;99.90
59282;DHT22;45054;52.062;10.010;2024-03-29T04:52:57;7.40;99.90
59282;DHT22;45054;52.062;10.010;2024-03-29T04:55:22;7.40;99.90
59282;DHT22;45054;52.062;10.010;2024-03-29T04:57:49;7.40;99.90
59282;DHT22;45054;52.062;10.010;2024-03-29T05:00:15;7.40;99.90
59282;DHT22;45054;52.062;10.010;2024-03-29T05:02:41;7.40;99.90
59282;DHT22;45054;52.062;10.010;2024-03-29T05:05:06;7.40;99.90
59282;DHT22;45054;52.062;10.010;2024-03-29T05:07:32;7.50;99.90
59282;DHT22;45054;52.062;10.010;2024-03-29T05:09:57;7.60;99.90
59282;DHT22;45054;52.062;10.010;2024-03-29T05:12:23;7.70;99.90
59282;DHT22;45054;52.062;10.010;2024-03-29T05:14:50;7.80;99.90
59282;DHT22;45054;52.062;10.010;2024-03-29T05:17:15;7.80;99.90
59282;DHT22;45054;52.062;10.010;2024-03-29T05:19:41;7.90;99.90
59282;DHT22;45054;52.062;10.010;2024-03-29T05:22:06;7.90;99.90
59282;DHT22;45054;52.062;10.010;2024-03-29T05:24:32;7.90;99.90
59282;DHT22;45054;52.062;10.010;2024-03-29T05:26:57;7.80;99.90
59282;DHT22;45054;52.062;10.010;2024-03-29T05:29:23;7.80;99.90
59282;DHT22;45054;52.062;10.010;2024-03-29T05:31:50;7.80;99.90
59282;DHT22;45054;52.062;10.010;2024-03-29T05:34:15;7.80;99.90
59282;DHT22;45054;52.062;10.010;2024-03-29T05:36:41;7.70;99.90
59282;DHT22;45054;52.062;10.010;2024-03-29T05:39:06;7.70;99.90
59282;DHT22;45054;52.062;10.010;2024-03-29T05:41:32;7.60;99.90
59282;DHT22;45054;52.062;10.010;2024-03-29T05:43:58;7.60;99.90
59282;DHT22;45054;52.062;10.010;2024-03-29T05:46:23;7.60;99.90
59282;DHT22;45054;52.062;10.010;2024-03-29T05:48:50;7.60;99.90
59282;DHT22;45054;52.062;10.010;2024-03-29T05:51:16;7.60;99.90
59282;DHT22;45054;52.062;10.010;2024-03-29T05:53:41;7.60;99.90
59282;DHT22;45054;52.062;10.010;2024-03-29T05:56:07;7.50;99.90
59282;DHT22;45054;52.062;10.010;2024-03-29T05:58:33;7.50;99.90
59282;DHT22;45054;52.062;10.010;2024-03-29T06:00:59;7.50;99.90
59282;DHT22;45054;52.062;10.010;2024-03-29T06:03:24;7.40;99.90
59282;DHT22;45054;52.062;10.010;2024-03-29T06:05:51;7.40;99.90
59282;DHT22;45054;52.062;10.010;2024-03-29T06:08:17;7.30;99.90
59282;DHT22;45054;52.062;10.010;2024-03-29T06:10:42;7.30;99.90
59282;DHT22;45054;52.062;10.010;2024-03-29T06:13:08;7.30;99.90
59282;DHT22;45054;52.062;10.010;2024-03-29T06:15:34;7.30;99.90
59282;DHT22;45054;52.062;10.010;2024-03-29T06:17:59;7.30;99.90
59282;DHT22;45054;52.062;10.010;2024-03-29T06:20:25;7.30;99.90
59282;DHT22;45054;52.062;10.010;2024-03-29T06:22:52;7.30;99.90
59282;DHT22;45054;52.062;10.010;2024-03-29T06:25:19;7.30;99.90
59282;DHT22;45054;52.062;10.010;2024-03-29T06:27:44;7.30;99.90
59282;DHT22;45054;52.062;10.010;2024-03-29T06:30:10;7.30;99.90
59282;DHT22;45054;52.062;10.010;2024-03-29T06:32:36;7.30;99.90
59282;DHT22;45054;52.062;10.010;2024-03-29T06:35:01;7.30;99.90
59282;DHT22;45054;52.062;10.010;2024-03-29T06:37:27;7.30;99.90
59282;DHT22;45054;52.062;10.010;2024-03-29T06:39:54;7.20;99.90
59282;DHT22;45054;52.062;10.010;2024-03-29T06:42:20;7.30;99.90
59282;DHT22;45054;52.062;10.010;2024-03-29T06:44:45;7.30;99.90
59282;DHT22;45054;52.062;10.010;2024-03-29T06:47:11;7.30;99.90
59282;DHT22;45054;52.062;10.010;2024-03-29T06:49:37;7.30;99.90
59282;DHT22;45054;52.062;10.010;2024-03-29T06:52:02;7.30;99.90
59282;DHT22;45054;52.062;10.010;2024-03-29T06:54:28;7.30;99.90
59282;DHT22;45054;52.062;10.010;2024-03-29T06:56:55;7.40;99.90
59282;DHT22;45054;52.062;10.010;2024-03-29T06:59:21;7.40;99.90
59282;DHT22;45054;52.062;10.010;2024-03-29T07:01:47;7.40;99.90
59282;DHT22;45054;52.062;10.010;2024-03-29T07:04:13;7.40;99.90
59282;DHT22;45054;52.062;10.010;2024-03-29T07:06:38;7.40;99.90
59282;DHT22;45054;52.062;10.010;2024-03-29T07:09:04;7.40;99.90
59282;DHT22;45054;52.062;10.010;2024-03-29T07:11:30;7.50;99.90
59282;DHT22;45054;52.062;10.010;2024-03-29T07:13:57;7.40;99.90
59282;DHT22;45054;52.062;10.010;2024-03-29T07:16:22;7.40;99.90
59282;DHT22;45054;52.062;10.010;2024-03-29T07:18:48;7.40;99.90
59282;DHT22;45054;52.062;10.010;2024-03-29T07:21:13;7.50;99.90
59282;DHT22;45054;52.062;10.010;2024-03-29T07:23:39;7.50;99.90
59282;DHT22;45054;52.062;10.010;2024-03-29T07:26:06;7.60;99.90
59282;DHT22;45054;52.062;10.010;2024-03-29T07:28:32;7.60;99.90
59282;DHT22;45054;52.062;10.010;2024-03-29T07:31:05;7.60;99.90
59282;DHT22;45054;52.062;10.010;2024-03-29T07:33:31;7.70;99.90
59282;DHT22;45054;52.062;10.010;2024-03-29T07:35:56;7.80;99.90
59282;DHT22;45054;52.062;10.010;2024-03-29T07:38:22;7.90;99.90
59282;DHT22;45054;52.062;10.010;2024-03-29T07:40:48;7.90;99.90
59282;DHT22;45054;52.062;10.010;2024-03-29T07:43:14;7.90;99.90
59282;DHT22;45054;52.062;10.010;2024-03-29T07:45:39;8.00;99.90
59282;DHT22;45054;52.062;10.010;2024-03-29T07:48:07;8.00;99.90
59282;DHT22;45054;52.062;10.010;2024-03-29T07:50:33;8.10;99.90
59282;DHT22;45054;52.062;10.010;2024-03-29T07:52:58;8.10;99.90
59282;DHT22;45054;52.062;10.010;2024-03-29T07:55:24;8.20;99.90
59282;DHT22;45054;52.062;10.010;2024-03-29T07:57:49;8.20;99.90
59282;DHT22;45054;52.062;10.010;2024-03-29T08:00:15;8.30;99.90
59282;DHT22;45054;52.062;10.010;2024-03-29T08:02:41;8.30;99.90
59282;DHT22;45054;52.062;10.010;2024-03-29T08:05:09;8.40;99.90
59282;DHT22;45054;52.062;10.010;2024-03-29T08:07:34;8.50;99.90
59282;DHT22;45054;52.062;10.010;2024-03-29T08:10:00;8.60;99.90
59282;DHT22;45054;52.062;10.010;2024-03-29T08:12:25;8.70;99.90
59282;DHT22;45054;52.062;10.010;2024-03-29T08:14:51;8.70;99.90
59282;DHT22;45054;52.062;10.010;2024-03-29T08:17:16;8.90;99.90
59282;DHT22;45054;52.062;10.010;2024-03-29T08:19:42;9.00;99.90
59282;DHT22;45054;52.062;10.010;2024-03-29T08:22:09;9.00;99.90
59282;DHT22;45054;52.062;10.010;2024-03-29T08:24:35;9.00;99.90
59282;DHT22;45054;52.062;10.010;2024-03-29T08:27:00;9.10;99.90
59282;DHT22;45054;52.062;10.010;2024-03-29T08:29:26;9.10;99.90
59282;DHT22;45054;52.062;10.010;2024-03-29T08:31:51;9.10;99.90
59282;DHT22;45054;52.062;10.010;2024-03-29T08:34:17;9.10;99.90
59282;DHT22;45054;52.062;10.010;2024-03-29T08:36:42;9.10;99.90
59282;DHT22;45054;52.062;10.010;2024-03-29T08:39:09;9.10;99.90
59282;DHT22;45054;52.062;10.010;2024-03-29T08:41:35;9.20;99.90
59282;DHT22;45054;52.062;10.010;2024-03-29T08:44:01;9.20;99.90
59282;DHT22;45054;52.062;10.010;2024-03-29T08:46:26;9.20;99.90
59282;DHT22;45054;52.062;10.010;2024-03-29T08:48:52;9.30;99.90
59282;DHT22;45054;52.062;10.010;2024-03-29T08:51:17;9.30;99.90
59282;DHT22;45054;52.062;10.010;2024-03-29T08:53:43;9.40;99.90
59282;DHT22;45054;52.062;10.010;2024-03-29T08:56:10;9.40;99.90
59282;DHT22;45054;52.062;10.010;2024-03-29T08:58:35;9.40;99.90
59282;DHT22;45054;52.062;10.010;2024-03-29T09:01:01;9.40;99.90
59282;DHT22;45054;52.062;10.010;2024-03-29T09:03:26;9.40;99.90
59282;DHT22;45054;52.062;10.010;2024-03-29T09:05:52;9.40;99.90
59282;DHT22;45054;52.062;10.010;2024-03-29T09:08:18;9.40;99.90
59282;DHT22;45054;52.062;10.010;2024-03-29T09:10:43;9.40;99.90
59282;DHT22;45054;52.062;10.010;2024-03-29T09:13:10;9.40;99.90
59282;DHT22;45054;52.062;10.010;2024-03-29T09:15:36;9.40;99.90
59282;DHT22;45054;52.062;10.010;2024-03-29T09:18:01;9.50;99.90
59282;DHT22;45054;52.062;10.010;2024-03-29T09:20:27;9.50;99.90
59282;DHT22;45054;52.062;10.010;2024-03-29T09:22:52;9.50;99.90
59282;DHT22;45054;52.062;10.010;2024-03-29T09:25:18;9.50;99.90
59282;DHT22;45054;52.062;10.010;2024-03-29T09:27:45;9.60;99.90
59282;DHT22;45054;52.062;10.010;2024-03-29T09:30:13;9.70;99.90
59282;DHT22;45054;52.062;10.010;2024-03-29T09:32:38;9.80;99.90
59282;DHT22;45054;52.062;10.010;2024-03-29T09:35:04;9.80;99.90
59282;DHT22;45054;52.062;10.010;2024-03-29T09:37:30;9.90;99.90
59282;DHT22;45054;52.062;10.010;2024-03-29T09:39:55;10.00;99.90
59282;DHT22;45054;52.062;10.010;2024-03-29T09:42:22;10.00;99.90
59282;DHT22;45054;52.062;10.010;2024-03-29T09:44:50;10.00;99.90
59282;DHT22;45054;52.062;10.010;2024-03-29T09:47:18;10.10;99.90
59282;DHT22;45054;52.062;10.010;2024-03-29T09:49:44;10.10;99.90
59282;DHT22;45054;52.062;10.010;2024-03-29T09:52:12;10.20;99.90
59282;DHT22;45054;52.062;10.010;2024-03-29T09:54:38;10.20;99.90
59282;DHT22;45054;52.062;10.010;2024-03-29T09:57:04;10.20;99.90
59282;DHT22;45054;52.062;10.010;2024-03-29T09:59:30;10.20;99.90
59282;DHT22;45054;52.062;10.010;2024-03-29T10:01:56;10.20;99.90
59282;DHT22;45054;52.062;10.010;2024-03-29T10:04:25;10.30;99.90
59282;DHT22;45054;52.062;10.010;2024-03-29T10:06:51;10.40;99.90
59282;DHT22;45054;52.062;10.010;2024-03-29T10:09:17;10.40;99.90
59282;DHT22;45054;52.062;10.010;2024-03-29T10:11:43;10.40;99.90
59282;DHT22;45054;52.062;10.010;2024-03-29T10:14:09;10.40;99.90
59282;DHT22;45054;52.062;10.010;2024-03-29T10:16:34;10.40;99.90
59282;DHT22;45054;52.062;10.010;2024-03-29T10:19:00;10.50;99.90
59282;DHT22;45054;52.062;10.010;2024-03-29T10:21:27;10.50;99.90
59282;DHT22;45054;52.062;10.010;2024-03-29T10:23:53;10.60;99.90
59282;DHT22;45054;52.062;10.010;2024-03-29T10:26:19;10.60;99.90
59282;DHT22;45054;52.062;10.010;2024-03-29T10:28:46;10.70;99.90
59282;DHT22;45054;52.062;10.010;2024-03-29T10:31:12;10.80;99.90
59282;DHT22;45054;52.062;10.010;2024-03-29T10:33:38;10.90;99.90
59282;DHT22;45054;52.062;10.010;2024-03-29T10:36:04;11.00;99.90
59282;DHT22;45054;52.062;10.010;2024-03-29T10:38:31;11.20;99.90
59282;DHT22;45054;52.062;10.010;2024-03-29T10:40:57;11.30;99.90
59282;DHT22;45054;52.062;10.010;2024-03-29T10:43:24;11.40;99.90
59282;DHT22;45054;52.062;10.010;2024-03-29T10:45:50;11.40;99.90
59282;DHT22;45054;52.062;10.010;2024-03-29T10:48:16;11.40;99.90
59282;DHT22;45054;52.062;10.010;2024-03-29T10:50:43;11.40;99.90
59282;DHT22;45054;52.062;10.010;2024-03-29T10:53:09;11.50;99.90
59282;DHT22;45054;52.062;10.010;2024-03-29T10:55:37;11.50;99.90
59282;DHT22;45054;52.062;10.010;2024-03-29T10:58:04;11.60;99.90
59282;DHT22;45054;52.062;10.010;2024-03-29T11:00:33;11.70;99.90
59282;DHT22;45054;52.062;10.010;2024-03-29T11:03:05;11.80;99.90
59282;DHT22;45054;52.062;10.010;2024-03-29T11:05:33;11.90;99.90
59282;DHT22;45054;52.062;10.010;2024-03-29T11:08:01;12.00;99.90
59282;DHT22;45054;52.062;10.010;2024-03-29T11:10:29;12.00;99.90
59282;DHT22;45054;52.062;10.010;2024-03-29T11:13:05;12.10;99.90
59282;DHT22;45054;52.062;10.010;2024-03-29T11:15:37;12.10;99.90
59282;DHT22;45054;52.062;10.010;2024-03-29T11:18:04;12.10;99.90
59282;DHT22;45054;52.062;10.010;2024-03-29T11:20:30;12.10;99.90
59282;DHT22;45054;52.062;10.010;2024-03-29T11:22:56;12.20;99.90
59282;DHT22;45054;52.062;10.010;2024-03-29T11:25:22;12.30;99.90
59282;DHT22;45054;52.062;10.010;2024-03-29T11:27:48;12.20;99.90
59282;DHT22;45054;52.062;10.010;2024-03-29T11:30:19;12.20;99.90
59282;DHT22;45054;52.062;10.010;2024-03-29T11:32:45;12.20;99.90
59282;DHT22;45054;52.062;10.010;2024-03-29T11:35:14;12.20;99.90
59282;DHT22;45054;52.062;10.010;2024-03-29T11:37:40;12.30;99.90
59282;DHT22;45054;52.062;10.010;2024-03-29T11:40:10;12.40;99.90
59282;DHT22;45054;52.062;10.010;2024-03-29T11:42:37;12.60;99.90
59282;DHT22;45054;52.062;10.010;2024-03-29T11:45:03;12.60;99.90
59282;DHT22;45054;52.062;10.010;2024-03-29T11:47:31;12.60;99.90
59282;DHT22;45054;52.062;10.010;2024-03-29T11:49:58;12.60;99.90
59282;DHT22;45054;52.062;10.010;2024-03-29T11:52:25;12.70;99.90
59282;DHT22;45054;52.062;10.010;2024-03-29T11:54:51;12.60;99.90
59282;DHT22;45054;52.062;10.010;2024-03-29T11:57:16;12.70;99.90
59282;DHT22;45054;52.062;10.010;2024-03-29T11:59:42;12.90;99.90
59282;DHT22;45054;52.062;10.010;2024-03-29T12:02:12;12.90;99.90
59282;DHT22;45054;52.062;10.010;2024-03-29T12:04:41;13.00;99.90
59282;DHT22;45054;52.062;10.010;2024-03-29T12:07:06;13.00;99.90
59282;DHT22;45054;52.062;10.010;2024-03-29T12:09:32;12.90;99.90
59282;DHT22;45054;52.062;10.010;2024-03-29T12:11:58;12.80;99.90
59282;DHT22;45054;52.062;10.010;2024-03-29T12:14:23;12.70;99.90
59282;DHT22;45054;52.062;10.010;2024-03-29T12:16:49;12.70;99.90
59282;DHT22;45054;52.062;10.010;2024-03-29T12:19:32;12.80;99.90
59282;DHT22;45054;52.062;10.010;2024-03-29T12:21:59;12.90;99.90
59282;DHT22;45054;52.062;10.010;2024-03-29T12:24:25;12.90;99.90
59282;DHT22;45054;52.062;10.010;2024-03-29T12:26:51;13.00;99.90
59282;DHT22;45054;52.062;10.010;2024-03-29T12:29:17;13.00;99.90
59282;DHT22;45054;52.062;10.010;2024-03-29T12:31:42;13.00;99.90
59282;DHT22;45054;52.062;10.010;2024-03-29T12:34:08;13.00;99.90
59282;DHT22;45054;52.062;10.010;2024-03-29T12:36:33;13.00;99.90
59282;DHT22;45054;52.062;10.010;2024-03-29T12:39:00;13.00;99.90
59282;DHT22;45054;52.062;10.010;2024-03-29T12:41:26;12.90;99.90
59282;DHT22;45054;52.062;10.010;2024-03-29T12:43:53;13.00;99.90
59282;DHT22;45054;52.062;10.010;2024-03-29T12:46:19;13.10;99.90
59282;DHT22;45054;52.062;10.010;2024-03-29T12:48:45;13.20;99.90
59282;DHT22;45054;52.062;10.010;2024-03-29T12:51:10;13.20;99.90
59282;DHT22;45054;52.062;10.010;2024-03-29T12:53:37;13.20;99.90
59282;DHT22;45054;52.062;10.010;2024-03-29T12:56:05;13.20;99.90
59282;DHT22;45054;52.062;10.010;2024-03-29T12:58:31;13.30;99.90
59282;DHT22;45054;52.062;10.010;2024-03-29T13:00:56;13.30;99.90
59282;DHT22;45054;52.062;10.010;2024-03-29T13:03:22;13.30;99.90
59282;DHT22;45054;52.062;10.010;2024-03-29T13:05:47;13.40;99.90
59282;DHT22;45054;52.062;10.010;2024-03-29T13:08:14;13.40;99.90
59282;DHT22;45054;52.062;10.010;2024-03-29T13:10:39;13.50;99.90
59282;DHT22;45054;52.062;10.010;2024-03-29T13:13:07;13.70;99.90
59282;DHT22;45054;52.062;10.010;2024-03-29T13:15:34;13.90;99.90
59282;DHT22;45054;52.062;10.010;2024-03-29T13:17:59;14.00;99.90
59282;DHT22;45054;52.062;10.010;2024-03-29T13:20:25;14.00;99.90
59282;DHT22;45054;52.062;10.010;2024-03-29T13:22:51;13.90;99.90
59282;DHT22;45054;52.062;10.010;2024-03-29T13:25:17;13.80;99.90
59282;DHT22;45054;52.062;10.010;2024-03-29T13:27:44;13.70;99.90
59282;DHT22;45054;52.062;10.010;2024-03-29T13:30:12;13.60;99.90
59282;DHT22;45054;52.062;10.010;2024-03-29T13:32:38;13.70;99.90
59282;DHT22;45054;52.062;10.010;2024-03-29T13:35:05;13.60;99.90
59282;DHT22;45054;52.062;10.010;2024-03-29T13:37:31;13.60;99.90
59282;DHT22;45054;52.062;10.010;2024-03-29T13:39:57;13.60;99.90
59282;DHT22;45054;52.062;10.010;2024-03-29T13:42:23;13.60;99.90
59282;DHT22;45054;52.062;10.010;2024-03-29T13:44:49;13.80;99.90
59282;DHT22;45054;52.062;10.010;2024-03-29T13:47:16;14.00;99.90
59282;DHT22;45054;52.062;10.010;2024-03-29T13:49:42;14.20;99.90
59282;DHT22;45054;52.062;10.010;2024-03-29T13:52:08;14.20;99.90
59282;DHT22;45054;52.062;10.010;2024-03-29T13:54:33;14.20;99.90
59282;DHT22;45054;52.062;10.010;2024-03-29T13:56:59;14.10;99.90
59282;DHT22;45054;52.062;10.010;2024-03-29T13:59:24;14.00;99.90
59282;DHT22;45054;52.062;10.010;2024-03-29T14:01:50;14.10;99.90
59282;DHT22;45054;52.062;10.010;2024-03-29T14:04:18;14.40;99.90
59282;DHT22;45054;52.062;10.010;2024-03-29T14:06:44;14.40;99.90
59282;DHT22;45054;52.062;10.010;2024-03-29T14:09:09;14.40;99.90
59282;DHT22;45054;52.062;10.010;2024-03-29T14:11:35;14.60;99.90
59282;DHT22;45054;52.062;10.010;2024-03-29T14:14:00;14.80;99.90
59282;DHT22;45054;52.062;10.010;2024-03-29T14:16:26;14.90;99.90
59282;DHT22;45054;52.062;10.010;2024-03-29T14:18:51;14.70;99.90
59282;DHT22;45054;52.062;10.010;2024-03-29T14:21:18;14.60;99.90
59282;DHT22;45054;52.062;10.010;2024-03-29T14:23:44;14.50;99.90
59282;DHT22;45054;52.062;10.010;2024-03-29T14:26:09;14.50;99.90
59282;DHT22;45054;52.062;10.010;2024-03-29T14:28:35;14.60;99.90
59282;DHT22;45054;52.062;10.010;2024-03-29T14:31:01;14.70;99.90
59282;DHT22;45054;52.062;10.010;2024-03-29T14:33:26;14.70;99.90
59282;DHT22;45054;52.062;10.010;2024-03-29T14:35:52;14.70;99.90
59282;DHT22;45054;52.062;10.010;2024-03-29T14:38:19;14.60;99.90
59282;DHT22;45054;52.062;10.010;2024-03-29T14:40:44;14.50;99.90
59282;DHT22;45054;52.062;10.010;2024-03-29T14:43:10;14.30;99.90
59282;DHT22;45054;52.062;10.010;2024-03-29T14:45:35;14.30;99.90
59282;DHT22;45054;52.062;10.010;2024-03-29T14:48:01;14.40;99.90
59282;DHT22;45054;52.062;10.010;2024-03-29T14:50:26;14.50;99.90
59282;DHT22;45054;52.062;10.010;2024-03-29T14:52:52;14.70;99.90
59282;DHT22;45054;52.062;10.010;2024-03-29T14:55:19;14.80;99.90
59282;DHT22;45054;52.062;10.010;2024-03-29T14:57:44;14.90;99.90
59282;DHT22;45054;52.062;10.010;2024-03-29T15:00:11;14.90;99.90
59282;DHT22;45054;52.062;10.010;2024-03-29T15:02:37;14.90;99.90
59282;DHT22;45054;52.062;10.010;2024-03-29T15:05:02;14.80;99.90
59282;DHT22;45054;52.062;10.010;2024-03-29T15:07:28;14.80;99.90
59282;DHT22;45054;52.062;10.010;2024-03-29T15:09:53;14.70;99.90
59282;DHT22;45054;52.062;10.010;2024-03-29T15:12:20;14.60;99.90
59282;DHT22;45054;52.062;10.010;2024-03-29T15:14:46;14.70;99.90
59282;DHT22;45054;52.062;10.010;2024-03-29T15:17:12;15.60;99.90